Islip Manor, New York
Current Conditions -  °F | °C
As of 3:56 AM on Friday 31 Oct 2014 (Local Time) from KISP Reporting Station
Broken Clouds Broken Clouds  
Wind Chill: 43°   Ceiling: 5000
Heat Index: 45°   Visibility: 10mi
Dew Point: 36°   Wind: 5mph
Humidity: 71%   Direction: 350°N
Pressure: 29.98"   Gusts: NA
Location:  40.7426°N, 73.2171°W
Report Text: KISP 310756Z AUTO 35004KT 10SM BKN050 07/02 A2998 RMK AO2 SLP153 T00720022
Loading
Personal Weather Stations






























Interactive Weather Map
Tropical Storm Tracking
New forecast layout! Learn more

10-Day Weather Forecast

Advertisements
Track Severe Weather on mobile